createdAt,value
2023-01-22T00:00:25.876Z,1.08
2023-01-22T00:01:25.841Z,1.08
2023-01-22T00:02:25.891Z,1.08
2023-01-22T00:03:25.898Z,1.06
2023-01-22T00:04:25.843Z,1.06
2023-01-22T00:05:25.825Z,1.08
2023-01-22T00:06:25.815Z,1.06
2023-01-22T00:07:25.776Z,1.08
2023-01-22T00:08:25.773Z,1.08
2023-01-22T00:09:25.760Z,1.09
2023-01-22T00:10:26.004Z,1.08
2023-01-22T00:11:25.740Z,1.08
2023-01-22T00:12:25.722Z,1.08
2023-01-22T00:13:25.696Z,1.08
2023-01-22T00:14:25.764Z,1.08
2023-01-22T00:15:25.672Z,1.08
2023-01-22T00:16:25.661Z,1.06
2023-01-22T00:17:25.630Z,1.08
2023-01-22T00:18:25.629Z,1.08
2023-01-22T00:19:25.650Z,1.06
2023-01-22T00:20:25.620Z,1.08
2023-01-22T00:21:25.602Z,1.09
2023-01-22T00:22:25.593Z,1.09
2023-01-22T00:23:25.568Z,1.08
2023-01-22T00:24:25.597Z,1.08
2023-01-22T00:25:25.547Z,1.11
2023-01-22T00:26:25.540Z,1.11
2023-01-22T00:27:25.556Z,1.11
2023-01-22T00:28:25.517Z,1.08
2023-01-22T00:29:25.516Z,1.09
2023-01-22T00:30:25.498Z,1.08
2023-01-22T00:31:25.525Z,1.11
2023-01-22T00:32:25.467Z,1.08
2023-01-22T00:33:25.455Z,1.09
2023-01-22T00:34:25.456Z,1.11
2023-01-22T00:35:25.422Z,1.08
2023-01-22T00:36:25.415Z,1.09
2023-01-22T00:37:25.420Z,1.09
2023-01-22T00:38:25.401Z,1.11
2023-01-22T00:39:25.380Z,1.12
2023-01-22T00:40:25.388Z,1.12
2023-01-22T00:41:25.359Z,1.11
2023-01-22T00:42:25.334Z,1.12
2023-01-22T00:43:25.316Z,1.12
2023-01-22T00:44:25.304Z,1.11
2023-01-22T00:45:25.293Z,1.15
2023-01-22T00:46:25.386Z,1.12
2023-01-22T00:47:25.272Z,1.12
2023-01-22T00:48:25.261Z,1.14
2023-01-22T00:49:25.231Z,1.16
2023-01-22T00:50:25.260Z,1.15
2023-01-22T00:51:25.248Z,1.15
2023-01-22T00:52:25.206Z,1.14
2023-01-22T00:53:25.192Z,1.16
2023-01-22T00:54:25.186Z,1.15
2023-01-22T00:55:25.192Z,1.16
2023-01-22T00:56:25.171Z,1.15
2023-01-22T00:57:25.144Z,1.14
2023-01-22T00:58:25.144Z,1.15
2023-01-22T00:59:25.110Z,1.15
2023-01-22T01:00:25.137Z,1.15
2023-01-22T01:01:25.089Z,1.15
2023-01-22T01:02:25.082Z,1.16
2023-01-22T01:03:25.080Z,1.18
2023-01-22T01:04:25.069Z,1.18
2023-01-22T01:05:25.061Z,1.18
2023-01-22T01:06:25.039Z,1.20
2023-01-22T01:07:25.037Z,1.22
2023-01-22T01:08:25.027Z,1.18
2023-01-22T01:09:24.990Z,1.20
2023-01-22T01:10:25.021Z,1.20
2023-01-22T01:11:24.958Z,1.18
2023-01-22T01:12:24.959Z,1.22
2023-01-22T01:13:24.965Z,1.18
2023-01-22T01:14:24.936Z,1.20
2023-01-22T01:15:24.926Z,1.20
2023-01-22T01:16:25.007Z,1.20
2023-01-22T01:17:24.876Z,1.20
2023-01-22T01:18:24.887Z,1.22
2023-01-22T01:19:24.887Z,1.20
2023-01-22T01:20:24.885Z,1.20
2023-01-22T01:21:24.834Z,1.20
2023-01-22T01:22:24.827Z,1.20
2023-01-22T01:23:24.804Z,1.16
2023-01-22T01:24:24.806Z,1.16
2023-01-22T01:25:24.795Z,1.16
2023-01-22T01:26:24.817Z,1.20
2023-01-22T01:27:24.751Z,1.18
2023-01-22T01:28:24.750Z,1.18
2023-01-22T01:29:24.726Z,1.22
2023-01-22T01:30:24.740Z,1.20
2023-01-22T01:31:24.776Z,1.22
2023-01-22T01:32:24.698Z,1.20
2023-01-22T01:33:24.686Z,1.22
2023-01-22T01:34:24.696Z,1.20
2023-01-22T01:35:24.672Z,1.20
2023-01-22T01:36:46.216Z,1.22
2023-01-22T01:37:25.633Z,1.20
2023-01-22T01:38:24.694Z,1.22
2023-01-22T01:39:24.609Z,1.22
2023-01-22T01:40:24.621Z,1.20
2023-01-22T01:41:24.589Z,1.18
2023-01-22T01:42:24.559Z,1.18
2023-01-22T01:43:24.575Z,1.18
2023-01-22T01:44:24.539Z,1.20
2023-01-22T01:45:24.685Z,1.20
2023-01-22T01:46:24.689Z,1.22
2023-01-22T01:47:24.695Z,1.20
2023-01-22T01:48:24.613Z,1.18
2023-01-22T01:49:24.586Z,1.22
2023-01-22T01:50:24.634Z,1.23
2023-01-22T01:51:24.499Z,1.20
2023-01-22T01:52:24.426Z,1.23
2023-01-22T01:53:24.422Z,1.23
2023-01-22T01:54:24.436Z,1.23
2023-01-22T01:55:24.411Z,1.23
2023-01-22T01:56:24.393Z,1.22
2023-01-22T01:57:24.365Z,1.22
2023-01-22T01:58:24.368Z,1.23
2023-01-22T01:59:24.348Z,1.20
2023-01-22T02:00:24.358Z,1.20
2023-01-22T02:01:24.323Z,1.22
2023-01-22T02:02:24.381Z,1.20
2023-01-22T02:03:24.294Z,1.22
2023-01-22T02:04:24.279Z,1.22
2023-01-22T02:05:24.315Z,1.18
2023-01-22T02:06:24.265Z,1.18
2023-01-22T02:07:24.251Z,1.22
2023-01-22T02:08:24.223Z,1.23
2023-01-22T02:09:24.213Z,1.18
2023-01-22T02:10:24.223Z,1.22
2023-01-22T02:11:24.197Z,1.20
2023-01-22T02:12:24.181Z,1.22
2023-01-22T02:13:24.153Z,1.22
2023-01-22T02:14:24.152Z,1.22
2023-01-22T02:15:24.157Z,1.18
2023-01-22T02:16:24.192Z,1.22
2023-01-22T02:17:24.112Z,1.20
2023-01-22T02:18:24.124Z,1.20
2023-01-22T02:19:24.091Z,1.20
2023-01-22T02:20:24.094Z,1.23
2023-01-22T02:21:24.148Z,1.24
2023-01-22T02:22:24.051Z,1.22
2023-01-22T02:23:24.033Z,1.23
2023-01-22T02:24:24.022Z,1.23
2023-01-22T02:25:24.020Z,1.22
2023-01-22T02:26:23.996Z,1.22
2023-01-22T02:27:24.071Z,1.24
2023-01-22T02:28:23.968Z,1.24
2023-01-22T02:29:23.959Z,1.24
2023-01-22T02:30:23.960Z,1.23
2023-01-22T02:31:23.959Z,1.23
2023-01-22T02:32:23.917Z,1.23
2023-01-22T02:33:23.922Z,1.23
2023-01-22T02:34:23.897Z,1.23
2023-01-22T02:35:23.905Z,1.27
2023-01-22T02:36:23.866Z,1.24
2023-01-22T02:37:23.856Z,1.24
2023-01-22T02:38:23.847Z,1.20
2023-01-22T02:39:23.846Z,1.23
2023-01-22T02:40:23.846Z,1.22
2023-01-22T02:41:23.812Z,1.20
2023-01-22T02:42:23.801Z,1.22
2023-01-22T02:43:23.783Z,1.22
2023-01-22T02:44:23.774Z,1.23
2023-01-22T02:45:23.790Z,1.23
2023-01-22T02:46:23.736Z,1.22
2023-01-22T02:47:23.721Z,1.22
2023-01-22T02:48:23.724Z,1.22
2023-01-22T02:49:23.695Z,1.20
2023-01-22T02:50:23.713Z,1.22
2023-01-22T02:51:23.769Z,1.20
2023-01-22T02:52:23.665Z,1.22
2023-01-22T02:53:23.676Z,1.23
2023-01-22T02:54:23.641Z,1.22
2023-01-22T02:55:23.635Z,1.22
2023-01-22T02:56:23.622Z,1.22
2023-01-22T02:57:23.614Z,1.22
2023-01-22T02:58:23.592Z,1.20
2023-01-22T02:59:23.585Z,1.22
2023-01-22T03:00:23.573Z,1.22
2023-01-22T03:01:23.549Z,1.18
2023-01-22T03:02:23.572Z,1.18
2023-01-22T03:03:23.534Z,1.18
2023-01-22T03:04:23.517Z,1.18
2023-01-22T03:05:23.516Z,1.16
2023-01-22T03:06:23.489Z,1.22
2023-01-22T03:07:23.481Z,1.22
2023-01-22T03:08:23.459Z,1.20
2023-01-22T03:09:23.470Z,1.18
2023-01-22T03:10:23.444Z,1.18
2023-01-22T03:11:23.431Z,1.18
2023-01-22T03:12:23.407Z,1.20
2023-01-22T03:13:23.388Z,1.20
2023-01-22T03:14:23.387Z,1.18
2023-01-22T03:15:23.407Z,1.20
2023-01-22T03:16:23.433Z,1.20
2023-01-22T03:17:23.369Z,1.18
2023-01-22T03:18:23.328Z,1.16
2023-01-22T03:19:23.326Z,1.16
2023-01-22T03:20:23.375Z,1.18
2023-01-22T03:21:23.317Z,1.20
2023-01-22T03:22:23.286Z,1.15
2023-01-22T03:23:23.278Z,1.16
2023-01-22T03:24:23.272Z,1.16
2023-01-22T03:25:23.271Z,1.16
2023-01-22T03:26:23.220Z,1.16
2023-01-22T03:27:23.206Z,1.14
2023-01-22T03:28:23.195Z,1.15
2023-01-22T03:29:23.200Z,1.15
2023-01-22T03:30:23.195Z,1.14
2023-01-22T03:31:23.221Z,1.14
2023-01-22T03:32:23.155Z,1.14
2023-01-22T03:33:23.215Z,1.12
2023-01-22T03:34:23.163Z,1.12
2023-01-22T03:35:24.381Z,1.14
2023-01-22T03:36:23.096Z,1.15
2023-01-22T03:37:23.090Z,1.14
2023-01-22T03:38:23.083Z,1.14
2023-01-22T03:39:23.071Z,1.14
2023-01-22T03:40:23.085Z,1.14
2023-01-22T03:41:23.044Z,1.15
2023-01-22T03:42:23.046Z,1.14
2023-01-22T03:43:23.026Z,1.14
2023-01-22T03:44:23.046Z,1.15
2023-01-22T03:45:23.041Z,1.15
2023-01-22T03:46:23.007Z,1.16
2023-01-22T03:47:22.970Z,1.16
2023-01-22T03:48:22.968Z,1.16
2023-01-22T03:49:22.941Z,1.14
2023-01-22T03:50:22.946Z,1.14
2023-01-22T03:51:22.980Z,1.15
2023-01-22T03:52:22.889Z,1.16
2023-01-22T03:53:22.915Z,1.14
2023-01-22T03:54:22.896Z,1.15
2023-01-22T03:55:22.884Z,1.12
2023-01-22T03:56:22.862Z,1.14
2023-01-22T03:57:22.838Z,1.14
2023-01-22T03:58:22.841Z,1.12
2023-01-22T03:59:22.831Z,1.12
2023-01-22T04:00:22.801Z,1.12
2023-01-22T04:01:22.849Z,1.12
2023-01-22T04:02:22.837Z,1.12
2023-01-22T04:03:22.770Z,1.09
2023-01-22T04:04:22.739Z,1.09
2023-01-22T04:05:22.784Z,1.09
2023-01-22T04:06:22.740Z,1.09
2023-01-22T04:07:22.713Z,1.08
2023-01-22T04:08:22.712Z,1.09
2023-01-22T04:09:22.705Z,1.08
2023-01-22T04:10:22.680Z,1.08
2023-01-22T04:11:22.690Z,1.06
2023-01-22T04:12:22.638Z,1.08
2023-01-22T04:13:22.663Z,1.08
2023-01-22T04:14:22.665Z,1.08
2023-01-22T04:15:22.614Z,1.09
2023-01-22T04:16:22.629Z,1.08
2023-01-22T04:17:22.787Z,1.09
2023-01-22T04:18:22.571Z,1.08
2023-01-22T04:19:22.555Z,1.09
2023-01-22T04:20:22.543Z,1.09
2023-01-22T04:21:22.562Z,1.09
2023-01-22T04:22:22.510Z,1.09
2023-01-22T04:23:22.525Z,1.11
2023-01-22T04:24:22.505Z,1.11
2023-01-22T04:25:22.481Z,1.11
2023-01-22T04:26:22.478Z,1.14
2023-01-22T04:27:22.481Z,1.14
2023-01-22T04:28:22.442Z,1.15
2023-01-22T04:29:22.451Z,1.15
2023-01-22T04:30:22.514Z,1.16
2023-01-22T04:31:22.611Z,1.15
2023-01-22T04:32:22.381Z,1.16
2023-01-22T04:33:22.378Z,1.16
2023-01-22T04:34:22.375Z,1.18
2023-01-22T04:35:22.372Z,1.20
2023-01-22T04:36:22.351Z,1.20
2023-01-22T04:37:22.344Z,1.18
2023-01-22T04:38:22.318Z,1.20
2023-01-22T04:39:22.311Z,1.22
2023-01-22T04:40:22.345Z,1.20
2023-01-22T04:41:22.288Z,1.22
2023-01-22T04:42:22.264Z,1.23
2023-01-22T04:43:22.259Z,1.23
2023-01-22T04:44:22.237Z,1.23
2023-01-22T04:45:22.230Z,1.23
2023-01-22T04:46:22.310Z,1.22
2023-01-22T04:47:22.200Z,1.22
2023-01-22T04:48:22.217Z,1.22
2023-01-22T04:49:22.173Z,1.23
2023-01-22T04:50:22.194Z,1.22
2023-01-22T04:51:22.244Z,1.22
2023-01-22T04:52:22.147Z,1.23
2023-01-22T04:53:22.137Z,1.22
2023-01-22T04:54:22.115Z,1.18
2023-01-22T04:55:22.139Z,1.20
2023-01-22T04:56:22.126Z,1.16
2023-01-22T04:57:22.087Z,1.18
2023-01-22T04:58:22.062Z,1.18
2023-01-22T04:59:22.057Z,1.16
2023-01-22T05:00:22.056Z,1.18
2023-01-22T05:01:22.090Z,1.16
2023-01-22T05:02:22.128Z,1.15
2023-01-22T05:03:22.006Z,1.16
2023-01-22T05:04:21.990Z,1.14
2023-01-22T05:05:21.975Z,1.14
2023-01-22T05:06:21.980Z,1.14
2023-01-22T05:07:21.944Z,1.12
2023-01-22T05:08:21.930Z,1.14
2023-01-22T05:09:21.919Z,1.15
2023-01-22T05:10:21.946Z,1.12
2023-01-22T05:11:21.908Z,1.12
2023-01-22T05:12:21.892Z,1.11
2023-01-22T05:13:21.877Z,1.11
2023-01-22T05:14:21.866Z,1.11
2023-01-22T05:15:24.680Z,1.09
2023-01-22T05:16:21.856Z,1.11
2023-01-22T05:17:21.831Z,1.11
2023-01-22T05:18:21.792Z,1.11
2023-01-22T05:19:22.084Z,1.12
2023-01-22T05:20:21.794Z,1.11
2023-01-22T05:21:21.793Z,1.09
2023-01-22T05:22:21.790Z,1.11
2023-01-22T05:23:21.732Z,1.11
2023-01-22T05:24:21.736Z,1.11
2023-01-22T05:25:21.713Z,1.11
2023-01-22T05:26:21.745Z,1.12
2023-01-22T05:27:21.681Z,1.11
2023-01-22T05:28:21.706Z,1.11
2023-01-22T05:29:21.669Z,1.12
2023-01-22T05:30:21.663Z,1.11
2023-01-22T05:31:21.765Z,1.12
2023-01-22T05:32:21.611Z,1.11
2023-01-22T05:33:21.619Z,1.09
2023-01-22T05:34:21.602Z,1.08
2023-01-22T05:35:21.590Z,1.11
2023-01-22T05:36:21.609Z,1.09
2023-01-22T05:37:21.589Z,1.09
2023-01-22T05:38:21.560Z,1.11
2023-01-22T05:39:23.971Z,1.11
2023-01-22T05:40:21.515Z,1.09
2023-01-22T05:41:21.546Z,1.11
2023-01-22T05:42:21.488Z,1.12
2023-01-22T05:43:21.481Z,1.09
2023-01-22T05:44:21.478Z,1.11
2023-01-22T05:45:21.458Z,1.11
2023-01-22T05:46:21.489Z,1.09
2023-01-22T05:47:21.444Z,1.11
2023-01-22T05:48:21.416Z,1.12
2023-01-22T05:49:21.399Z,1.09
2023-01-22T05:50:21.383Z,1.12
2023-01-22T05:51:21.419Z,1.09
2023-01-22T05:52:21.390Z,1.11
2023-01-22T05:53:21.365Z,1.09
2023-01-22T05:54:21.335Z,1.09
2023-01-22T05:55:21.318Z,1.11
2023-01-22T05:56:21.325Z,1.11
2023-01-22T05:57:21.308Z,1.12
2023-01-22T05:58:21.283Z,1.11
2023-01-22T05:59:21.285Z,1.12
2023-01-22T06:00:21.335Z,1.12
2023-01-22T06:01:21.257Z,1.14
2023-01-22T06:02:21.307Z,1.14
2023-01-22T06:03:21.242Z,1.12
2023-01-22T06:04:21.216Z,1.12
2023-01-22T06:05:21.214Z,1.11
2023-01-22T06:06:21.187Z,1.12
2023-01-22T06:07:21.190Z,1.12
2023-01-22T06:08:21.152Z,1.12
2023-01-22T06:09:21.157Z,1.11
2023-01-22T06:10:21.146Z,1.11
2023-01-22T06:11:21.124Z,1.12
2023-01-22T06:12:21.122Z,1.11
2023-01-22T06:13:21.092Z,1.12
2023-01-22T06:14:21.082Z,1.11
2023-01-22T06:15:21.092Z,1.11
2023-01-22T06:16:21.066Z,1.11
2023-01-22T06:17:21.058Z,1.11
2023-01-22T06:18:21.029Z,1.12
2023-01-22T06:19:21.023Z,1.09
2023-01-22T06:20:21.001Z,1.09
2023-01-22T06:21:20.989Z,1.09
2023-01-22T06:22:21.002Z,1.08
2023-01-22T06:23:20.966Z,1.09
2023-01-22T06:24:20.961Z,1.08
2023-01-22T06:25:20.975Z,1.06
2023-01-22T06:26:20.933Z,1.06
2023-01-22T06:27:20.948Z,1.09
2023-01-22T06:28:20.897Z,1.08
2023-01-22T06:29:20.895Z,1.08
2023-01-22T06:30:20.876Z,1.09
2023-01-22T06:31:20.961Z,1.09
2023-01-22T06:32:20.868Z,1.06
2023-01-22T06:33:20.861Z,1.08
2023-01-22T06:34:20.836Z,1.06
2023-01-22T06:35:20.813Z,1.06
2023-01-22T06:36:20.800Z,1.06
2023-01-22T06:37:20.809Z,1.08
2023-01-22T06:38:20.786Z,1.08
2023-01-22T06:39:20.773Z,1.08
2023-01-22T06:40:20.965Z,1.08
2023-01-22T06:41:20.735Z,1.09
2023-01-22T06:42:20.765Z,1.09
2023-01-22T06:43:20.725Z,1.08
2023-01-22T06:44:20.684Z,1.08
2023-01-22T06:45:20.687Z,1.09
2023-01-22T06:46:20.683Z,1.08
2023-01-22T06:47:20.697Z,1.09
2023-01-22T06:48:20.657Z,1.09
2023-01-22T06:49:20.632Z,1.08
2023-01-22T06:50:20.813Z,1.11
2023-01-22T06:51:20.669Z,1.11
2023-01-22T06:52:20.620Z,1.11
2023-01-22T06:53:20.590Z,1.09
2023-01-22T06:54:20.562Z,1.09
2023-01-22T06:55:20.563Z,1.11
2023-01-22T06:56:20.550Z,1.09
2023-01-22T06:57:20.548Z,1.12
2023-01-22T06:58:20.524Z,1.11
2023-01-22T06:59:20.509Z,1.14
2023-01-22T07:00:20.850Z,1.14
2023-01-22T07:01:20.530Z,1.12
2023-01-22T07:02:20.484Z,1.12
2023-01-22T07:03:20.491Z,1.14
2023-01-22T07:04:20.447Z,1.12
2023-01-22T07:05:20.438Z,1.12
2023-01-22T07:06:20.422Z,1.12
2023-01-22T07:07:20.430Z,1.12
2023-01-22T07:08:20.386Z,1.12
2023-01-22T07:09:20.378Z,1.14
2023-01-22T07:10:20.749Z,1.12
2023-01-22T07:11:20.366Z,1.14
2023-01-22T07:12:20.372Z,1.12
2023-01-22T07:13:20.326Z,1.12
2023-01-22T07:14:35.714Z,1.11
2023-01-22T07:15:21.310Z,1.14
2023-01-22T07:16:20.366Z,1.14
2023-01-22T07:17:20.294Z,1.12
2023-01-22T07:18:20.256Z,1.14
2023-01-22T07:19:20.295Z,1.16
2023-01-22T07:20:20.433Z,1.15
2023-01-22T07:21:20.224Z,1.18
2023-01-22T07:22:20.237Z,1.16
2023-01-22T07:23:20.194Z,1.16
2023-01-22T07:24:20.197Z,1.16
2023-01-22T07:25:20.163Z,1.20
2023-01-22T07:26:20.162Z,1.18
2023-01-22T07:27:20.153Z,1.20
2023-01-22T07:28:20.167Z,1.22
2023-01-22T07:29:20.151Z,1.22
2023-01-22T07:30:20.340Z,1.23
2023-01-22T07:31:20.126Z,1.26
2023-01-22T07:32:20.102Z,1.26
2023-01-22T07:33:20.062Z,1.26
2023-01-22T07:34:20.080Z,1.24
2023-01-22T07:35:20.055Z,1.26
2023-01-22T07:36:20.031Z,1.27
2023-01-22T07:37:20.066Z,1.27
2023-01-22T07:38:20.016Z,1.30
2023-01-22T07:39:20.000Z,1.30
2023-01-22T07:40:20.371Z,1.32
2023-01-22T07:41:25.902Z,1.33
2023-01-22T07:42:20.972Z,1.33
2023-01-22T07:43:19.955Z,1.34
2023-01-22T07:44:19.928Z,1.36
2023-01-22T07:45:19.923Z,1.40
2023-01-22T07:46:19.954Z,1.36
2023-01-22T07:47:19.900Z,1.37
2023-01-22T07:48:19.898Z,1.40
2023-01-22T07:49:19.858Z,1.40
2023-01-22T07:50:20.041Z,1.42
2023-01-22T07:51:19.899Z,1.41
2023-01-22T07:52:19.915Z,1.42
2023-01-22T07:53:19.827Z,1.42
2023-01-22T07:54:19.951Z,1.44
2023-01-22T07:55:19.847Z,1.45
2023-01-22T07:56:19.795Z,1.47
2023-01-22T07:57:19.800Z,1.45
2023-01-22T07:58:19.759Z,1.48
2023-01-22T07:59:19.771Z,1.47
2023-01-22T08:00:20.009Z,1.50
2023-01-22T08:01:19.737Z,1.51
2023-01-22T08:02:19.766Z,1.50
2023-01-22T08:03:19.693Z,1.50
2023-01-22T08:04:19.692Z,1.51
2023-01-22T08:05:19.663Z,1.51
2023-01-22T08:06:19.656Z,1.52
2023-01-22T08:07:19.692Z,1.52
2023-01-22T08:08:19.630Z,1.54
2023-01-22T08:09:19.651Z,1.54
2023-01-22T08:10:20.193Z,1.54
2023-01-22T08:11:19.606Z,1.52
2023-01-22T08:12:19.582Z,1.52
2023-01-22T08:13:19.582Z,1.55
2023-01-22T08:14:19.561Z,1.55
2023-01-22T08:15:19.555Z,1.54
2023-01-22T08:16:19.583Z,1.55
2023-01-22T08:17:19.549Z,1.52
2023-01-22T08:18:21.451Z,1.54
2023-01-22T08:19:19.511Z,1.51
2023-01-22T08:20:19.834Z,1.51
2023-01-22T08:21:19.481Z,1.52
2023-01-22T08:22:19.530Z,1.51
2023-01-22T08:23:21.772Z,1.52
2023-01-22T08:24:19.441Z,1.55
2023-01-22T08:25:19.430Z,1.55
2023-01-22T08:26:19.450Z,1.58
2023-01-22T08:27:19.477Z,1.58
2023-01-22T08:28:19.445Z,1.58
2023-01-22T08:29:19.429Z,1.58
2023-01-22T08:30:19.689Z,1.59
2023-01-22T08:31:27.342Z,1.59
2023-01-22T08:32:20.385Z,1.60
2023-01-22T08:33:19.347Z,1.62
2023-01-22T08:34:19.399Z,1.62
2023-01-22T08:35:19.828Z,1.66
2023-01-22T08:36:19.332Z,1.68
2023-01-22T08:37:19.324Z,1.68
2023-01-22T08:38:19.316Z,1.68
2023-01-22T08:39:19.310Z,1.65
2023-01-22T08:40:19.465Z,1.65
2023-01-22T08:41:19.257Z,1.66
2023-01-22T08:42:19.243Z,1.63
2023-01-22T08:43:19.206Z,1.65
2023-01-22T08:44:19.213Z,1.65
2023-01-22T08:45:19.192Z,1.62
2023-01-22T08:46:19.221Z,1.62
2023-01-22T08:47:19.144Z,1.60
2023-01-22T08:48:19.166Z,1.60
2023-01-22T08:49:19.925Z,1.59
2023-01-22T08:50:20.502Z,1.59
2023-01-22T08:51:19.144Z,1.60
2023-01-22T08:52:19.130Z,1.60
2023-01-22T08:53:19.115Z,1.59
2023-01-22T08:54:19.111Z,1.60
2023-01-22T08:55:19.031Z,1.62
2023-01-22T08:56:19.028Z,1.62
2023-01-22T08:57:19.007Z,1.65
2023-01-22T08:58:19.022Z,1.65
2023-01-22T08:59:18.983Z,1.63
2023-01-22T09:00:19.270Z,1.65
2023-01-22T09:01:19.072Z,1.65
2023-01-22T09:02:18.968Z,1.65
2023-01-22T09:03:18.941Z,1.66
2023-01-22T09:04:18.919Z,1.65
2023-01-22T09:05:18.912Z,1.68
2023-01-22T09:06:18.915Z,1.65
2023-01-22T09:07:18.879Z,1.65
2023-01-22T09:08:18.881Z,1.66
2023-01-22T09:09:18.864Z,1.68
2023-01-22T09:10:21.325Z,1.65
2023-01-22T09:11:18.834Z,1.68
2023-01-22T09:12:18.819Z,1.68
2023-01-22T09:13:18.808Z,1.68
2023-01-22T09:14:18.793Z,1.68
2023-01-22T09:15:18.760Z,1.66
2023-01-22T09:16:18.781Z,1.68
2023-01-22T09:17:18.756Z,1.66
2023-01-22T09:18:18.758Z,1.68
2023-01-22T09:19:18.718Z,1.65
2023-01-22T09:20:18.958Z,1.68
2023-01-22T09:21:18.715Z,1.66
2023-01-22T09:22:18.687Z,1.63
2023-01-22T09:23:18.696Z,1.65
2023-01-22T09:24:18.666Z,1.66
2023-01-22T09:25:18.636Z,1.65
2023-01-22T09:26:18.647Z,1.66
2023-01-22T09:27:18.623Z,1.65
2023-01-22T09:28:18.654Z,1.66
2023-01-22T09:29:18.595Z,1.66
2023-01-22T09:30:19.057Z,1.66
2023-01-22T09:31:18.586Z,1.63
2023-01-22T09:32:18.580Z,1.63
2023-01-22T09:33:18.628Z,1.63
2023-01-22T09:34:18.533Z,1.66
2023-01-22T09:35:18.515Z,1.65
2023-01-22T09:36:18.512Z,1.66
2023-01-22T09:37:18.492Z,1.66
2023-01-22T09:38:18.504Z,1.65
2023-01-22T09:39:18.481Z,1.66
2023-01-22T09:40:18.612Z,1.68
2023-01-22T09:41:18.440Z,1.66
2023-01-22T09:42:18.431Z,1.69
2023-01-22T09:43:18.433Z,1.68
2023-01-22T09:44:18.411Z,1.68
2023-01-22T09:45:18.396Z,1.69
2023-01-22T09:46:18.416Z,1.69
2023-01-22T09:47:18.385Z,1.69
2023-01-22T09:48:18.420Z,1.70
2023-01-22T09:49:18.350Z,1.70
2023-01-22T09:50:18.739Z,1.70
2023-01-22T09:51:18.316Z,1.72
2023-01-22T09:52:18.310Z,1.72
2023-01-22T09:53:18.308Z,1.72
2023-01-22T09:54:18.287Z,1.70
2023-01-22T09:55:18.258Z,1.73
2023-01-22T09:56:18.265Z,1.70
2023-01-22T09:57:30.630Z,1.72
2023-01-22T09:58:19.246Z,1.76
2023-01-22T09:59:18.217Z,1.77
2023-01-22T10:00:18.524Z,1.77
2023-01-22T10:01:18.255Z,1.77
2023-01-22T10:02:18.237Z,1.81
2023-01-22T10:03:18.169Z,1.79
2023-01-22T10:04:18.154Z,1.83
2023-01-22T10:05:18.147Z,1.81
2023-01-22T10:06:18.135Z,1.80
2023-01-22T10:07:18.140Z,1.80
2023-01-22T10:08:18.146Z,1.81
2023-01-22T10:09:18.089Z,1.81
2023-01-22T10:10:18.381Z,1.81
2023-01-22T10:11:18.079Z,1.81
2023-01-22T10:12:18.064Z,1.81
2023-01-22T10:13:18.055Z,1.80
2023-01-22T10:14:18.033Z,1.81
2023-01-22T10:15:18.011Z,1.80
2023-01-22T10:16:18.047Z,1.83
2023-01-22T10:17:17.983Z,1.81
2023-01-22T10:18:17.991Z,1.81
2023-01-22T10:19:17.967Z,1.81
2023-01-22T10:20:18.143Z,1.81
2023-01-22T10:21:17.943Z,1.81
2023-01-22T10:22:17.929Z,1.79
2023-01-22T10:23:17.921Z,1.80
2023-01-22T10:24:17.901Z,1.79
2023-01-22T10:25:17.881Z,1.79
2023-01-22T10:26:17.890Z,1.77
2023-01-22T10:27:17.851Z,1.79
2023-01-22T10:28:17.871Z,1.77
2023-01-22T10:29:17.833Z,1.76
2023-01-22T10:30:18.129Z,1.77
2023-01-22T10:31:17.931Z,1.77
2023-01-22T10:32:17.821Z,1.77
2023-01-22T10:33:17.794Z,1.79
2023-01-22T10:34:17.768Z,1.79
2023-01-22T10:35:17.767Z,1.79
2023-01-22T10:36:17.761Z,1.76
2023-01-22T10:37:17.747Z,1.81
2023-01-22T10:38:17.764Z,1.81
2023-01-22T10:39:17.721Z,1.81
2023-01-22T10:40:18.000Z,1.80
2023-01-22T10:41:17.685Z,1.81
2023-01-22T10:42:17.668Z,1.80
2023-01-22T10:43:17.693Z,1.81
2023-01-22T10:44:17.664Z,1.80
2023-01-22T10:45:17.622Z,1.80
2023-01-22T10:46:17.832Z,1.80
2023-01-22T10:47:17.597Z,1.80
2023-01-22T10:48:17.620Z,1.77
2023-01-22T10:49:17.600Z,1.81
2023-01-22T10:50:17.873Z,1.80
2023-01-22T10:51:17.606Z,1.83
2023-01-22T10:52:17.548Z,1.83
2023-01-22T10:53:17.540Z,1.81
2023-01-22T10:54:17.505Z,1.79
2023-01-22T10:55:17.546Z,1.80
2023-01-22T10:56:17.504Z,1.80
2023-01-22T10:57:17.467Z,1.81
2023-01-22T10:58:17.474Z,1.79
2023-01-22T10:59:17.445Z,1.80
2023-01-22T11:00:17.859Z,1.81
2023-01-22T11:01:17.477Z,1.83
2023-01-22T11:02:17.454Z,1.83
2023-01-22T11:03:17.404Z,1.83
2023-01-22T11:04:17.383Z,1.81
2023-01-22T11:05:17.391Z,1.83
2023-01-22T11:06:17.365Z,1.83
2023-01-22T11:07:17.335Z,1.81
2023-01-22T11:08:17.351Z,1.81
2023-01-22T11:09:17.311Z,1.80
2023-01-22T11:10:17.661Z,1.81
2023-01-22T11:11:17.306Z,1.80
2023-01-22T11:12:17.287Z,1.81
2023-01-22T11:13:17.270Z,1.80
2023-01-22T11:14:17.250Z,1.80
2023-01-22T11:15:17.233Z,1.87
2023-01-22T11:16:17.256Z,1.83
2023-01-22T11:17:17.218Z,1.84
2023-01-22T11:18:17.220Z,1.83
2023-01-22T11:19:21.707Z,1.83
2023-01-22T11:20:18.542Z,1.83
2023-01-22T11:21:17.166Z,1.83
2023-01-22T11:22:17.165Z,1.83
2023-01-22T11:23:17.157Z,1.83
2023-01-22T11:24:17.139Z,1.83
2023-01-22T11:25:17.163Z,1.81
2023-01-22T11:26:17.098Z,1.81
2023-01-22T11:27:17.094Z,1.81
2023-01-22T11:28:17.066Z,1.83
2023-01-22T11:29:17.069Z,1.83
2023-01-22T11:30:19.826Z,1.86
2023-01-22T11:31:17.201Z,1.84
2023-01-22T11:32:17.007Z,1.86
2023-01-22T11:33:17.017Z,1.88
2023-01-22T11:34:17.007Z,1.88
2023-01-22T11:35:16.993Z,1.87
2023-01-22T11:36:17.012Z,1.87
2023-01-22T11:37:16.956Z,1.87
2023-01-22T11:38:16.943Z,1.87
2023-01-22T11:39:16.949Z,1.87
2023-01-22T11:40:17.356Z,1.86
2023-01-22T11:41:16.903Z,1.83
2023-01-22T11:42:16.883Z,1.84
2023-01-22T11:43:16.885Z,1.84
2023-01-22T11:44:16.887Z,1.83
2023-01-22T11:45:16.854Z,1.84
2023-01-22T11:46:16.903Z,1.86
2023-01-22T11:47:16.835Z,1.87
2023-01-22T11:48:16.834Z,1.87
2023-01-22T11:49:16.856Z,1.86
2023-01-22T11:50:17.132Z,1.86
2023-01-22T11:51:16.812Z,1.81
2023-01-22T11:52:16.775Z,1.81
2023-01-22T11:53:16.761Z,1.81
2023-01-22T11:54:16.767Z,1.81
2023-01-22T11:55:16.739Z,1.83
2023-01-22T11:56:16.716Z,1.84
2023-01-22T11:57:16.714Z,1.84
2023-01-22T11:58:16.692Z,1.83
2023-01-22T11:59:16.722Z,1.83
2023-01-22T12:00:17.068Z,1.84
2023-01-22T12:01:16.678Z,1.83
2023-01-22T12:02:16.741Z,1.84
2023-01-22T12:03:16.639Z,1.86
2023-01-22T12:04:16.649Z,1.83
2023-01-22T12:05:16.628Z,1.83
2023-01-22T12:06:16.599Z,1.84
2023-01-22T12:07:16.578Z,1.87
2023-01-22T12:08:16.567Z,1.88
2023-01-22T12:09:16.569Z,1.88
2023-01-22T12:10:16.878Z,1.91
2023-01-22T12:11:16.528Z,1.90
2023-01-22T12:12:16.519Z,1.91
2023-01-22T12:13:16.498Z,1.90
2023-01-22T12:14:16.511Z,1.91
2023-01-22T12:15:16.483Z,1.88
2023-01-22T12:16:16.504Z,1.90
2023-01-22T12:17:16.452Z,1.90
2023-01-22T12:18:16.426Z,1.90
2023-01-22T12:19:16.438Z,1.91
2023-01-22T12:20:16.877Z,1.88
2023-01-22T12:21:16.407Z,1.87
2023-01-22T12:22:16.391Z,1.86
2023-01-22T12:23:16.412Z,1.87
2023-01-22T12:24:16.377Z,1.88
2023-01-22T12:25:16.351Z,1.88
2023-01-22T12:26:16.331Z,1.90
2023-01-22T12:27:16.322Z,1.88
2023-01-22T12:28:16.304Z,1.88
2023-01-22T12:29:16.321Z,1.90
2023-01-22T12:30:16.673Z,1.91
2023-01-22T12:31:16.370Z,1.91
2023-01-22T12:32:16.267Z,1.91
2023-01-22T12:33:16.265Z,1.91
2023-01-22T12:34:16.254Z,1.91
2023-01-22T12:35:16.235Z,1.91
2023-01-22T12:36:16.294Z,1.90
2023-01-22T12:37:16.199Z,1.93
2023-01-22T12:38:16.175Z,1.95
2023-01-22T12:39:16.182Z,1.93
2023-01-22T12:40:16.303Z,1.95
2023-01-22T12:41:16.153Z,1.98
2023-01-22T12:42:16.128Z,1.98
2023-01-22T12:43:16.128Z,1.93
2023-01-22T12:44:16.123Z,1.90
2023-01-22T12:45:16.090Z,1.90
2023-01-22T12:46:16.203Z,1.91
2023-01-22T12:47:16.068Z,1.93
2023-01-22T12:48:16.050Z,1.93
2023-01-22T12:49:16.069Z,1.88
2023-01-22T12:50:16.024Z,1.90
2023-01-22T12:51:16.128Z,1.93
2023-01-22T12:52:16.006Z,1.90
2023-01-22T12:53:15.997Z,1.87
2023-01-22T12:54:16.018Z,1.88
2023-01-22T12:55:15.975Z,1.87
2023-01-22T12:56:15.959Z,1.88
2023-01-22T12:57:15.936Z,1.88
2023-01-22T12:58:15.926Z,1.87
2023-01-22T12:59:15.954Z,1.88
2023-01-22T13:00:15.905Z,1.88
2023-01-22T13:01:15.897Z,1.88
2023-01-22T13:02:15.905Z,1.86
2023-01-22T13:03:26.766Z,1.86
2023-01-22T13:04:16.864Z,1.86
2023-01-22T13:05:15.844Z,1.87
2023-01-22T13:06:15.824Z,1.86
2023-01-22T13:07:15.837Z,1.87
2023-01-22T13:08:15.855Z,1.90
2023-01-22T13:09:15.807Z,1.91
2023-01-22T13:10:15.776Z,1.87
2023-01-22T13:11:15.763Z,1.88
2023-01-22T13:12:15.747Z,1.87
2023-01-22T13:13:15.756Z,1.87
2023-01-22T13:14:15.732Z,1.86
2023-01-22T13:15:15.724Z,1.86
2023-01-22T13:16:15.728Z,1.86
2023-01-22T13:17:15.702Z,1.90
2023-01-22T13:18:15.677Z,1.88